createdAt,value
2023-03-13T00:01:29.598Z,96634.28
2023-03-13T00:03:57.469Z,96643.91
2023-03-13T00:06:25.911Z,96638.66
2023-03-13T00:08:53.733Z,96626.31
2023-03-13T00:11:21.313Z,96635.25
2023-03-13T00:13:50.270Z,96632.63
2023-03-13T00:16:18.170Z,96623.34
2023-03-13T00:18:46.857Z,96617.06
2023-03-13T00:21:14.597Z,96613.19
2023-03-13T00:23:42.337Z,96614.69
2023-03-13T00:26:11.376Z,96605.19
2023-03-13T00:28:40.199Z,96603.09
2023-03-13T00:31:10.449Z,96606.97
2023-03-13T00:33:39.794Z,96593.09
2023-03-13T00:36:09.363Z,96609.38
2023-03-13T00:38:37.627Z,96606.31
2023-03-13T00:41:07.085Z,96601.63
2023-03-13T00:43:35.145Z,96600.94
2023-03-13T00:46:03.015Z,96594.88
2023-03-13T00:48:33.175Z,96584.72
2023-03-13T00:51:01.217Z,96586.34
2023-03-13T00:53:28.852Z,96585.50
2023-03-13T00:55:57.939Z,96575.88
2023-03-13T00:58:26.778Z,96572.66
2023-03-13T01:00:54.645Z,96574.84
2023-03-13T01:03:25.400Z,96569.31
2023-03-13T01:05:58.349Z,96563.91
2023-03-13T01:08:25.940Z,96548.88
2023-03-13T01:10:59.545Z,96553.66
2023-03-13T01:13:27.604Z,96552.69
2023-03-13T01:15:55.300Z,96546.03
2023-03-13T01:18:23.464Z,96547.81
2023-03-13T01:20:51.138Z,96548.78
2023-03-13T01:23:20.076Z,96544.69
2023-03-13T01:25:47.702Z,96548.66
2023-03-13T01:28:15.987Z,96549.44
2023-03-13T01:30:43.674Z,96549.44
2023-03-13T01:33:11.286Z,96544.53
2023-03-13T01:35:39.026Z,96545.66
2023-03-13T01:38:06.845Z,96552.91
2023-03-13T01:40:42.035Z,96544.22
2023-03-13T01:43:27.038Z,96540.31
2023-03-13T01:45:58.748Z,96545.25
2023-03-13T01:48:30.430Z,96545.94
2023-03-13T01:51:00.928Z,96540.31
2023-03-13T01:53:30.898Z,96532.09
2023-03-13T01:56:01.140Z,96548.56
2023-03-13T01:58:30.351Z,96543.91
2023-03-13T02:00:59.225Z,96538.97
2023-03-13T02:03:27.748Z,96535.56
2023-03-13T02:05:56.812Z,96546.84
2023-03-13T02:08:27.040Z,96547.13
2023-03-13T02:10:59.590Z,96535.69
2023-03-13T02:13:29.062Z,96544.38
2023-03-13T02:15:57.106Z,96536.22
2023-03-13T02:18:25.987Z,96513.78
2023-03-13T02:20:57.829Z,96521.94
2023-03-13T02:23:29.039Z,96517.69
2023-03-13T02:25:58.044Z,96514.91
2023-03-13T02:28:26.952Z,96516.69
2023-03-13T02:30:56.851Z,96515.94
2023-03-13T02:33:27.761Z,96510.84
2023-03-13T02:35:55.866Z,96516.69
2023-03-13T02:38:25.712Z,96525.03
2023-03-13T02:40:54.312Z,96521.00
2023-03-13T02:43:27.513Z,96524.16
2023-03-13T02:46:10.180Z,96527.38
2023-03-13T02:48:39.210Z,96526.41
2023-03-13T02:51:11.999Z,96517.72
2023-03-13T02:53:39.638Z,96504.56
2023-03-13T02:56:08.328Z,96513.44
2023-03-13T02:58:50.878Z,96509.19
2023-03-13T03:01:18.694Z,96512.94
2023-03-13T03:03:46.480Z,96512.47
2023-03-13T03:06:14.156Z,96508.88
2023-03-13T03:08:43.867Z,96501.69
2023-03-13T03:11:12.031Z,96504.69
2023-03-13T03:13:39.841Z,96502.06
2023-03-13T03:16:10.481Z,96501.94
2023-03-13T03:18:38.633Z,96500.50
2023-03-13T03:21:08.085Z,96500.34
2023-03-13T03:23:35.877Z,96498.06
2023-03-13T03:26:04.646Z,96492.53
2023-03-13T03:28:32.251Z,96498.59
2023-03-13T03:31:05.094Z,96500.91
2023-03-13T03:33:34.039Z,96484.22
2023-03-13T03:36:02.477Z,96474.88
2023-03-13T03:38:30.154Z,96486.53
2023-03-13T03:40:57.771Z,96468.00
2023-03-13T03:43:25.790Z,96470.00
2023-03-13T03:45:53.435Z,96479.03
2023-03-13T03:48:21.098Z,96472.00
2023-03-13T03:50:50.029Z,96465.13
2023-03-13T03:53:17.852Z,96464.81
2023-03-13T03:55:45.788Z,96462.34
2023-03-13T03:58:13.477Z,96456.44
2023-03-13T04:00:41.221Z,96453.81
2023-03-13T04:03:08.841Z,96457.63
2023-03-13T04:05:36.469Z,96454.81
2023-03-13T04:08:05.782Z,96445.84
2023-03-13T04:10:33.422Z,96441.28
2023-03-13T04:13:00.993Z,96436.69
2023-03-13T04:15:28.637Z,96441.28
2023-03-13T04:17:59.511Z,96428.81
2023-03-13T04:20:28.769Z,96439.47
2023-03-13T04:22:56.367Z,96436.84
2023-03-13T04:25:25.446Z,96430.47
2023-03-13T04:27:53.078Z,96431.56
2023-03-13T04:30:20.790Z,96435.69
2023-03-13T04:32:48.510Z,96420.97
2023-03-13T04:35:16.456Z,96426.66
2023-03-13T04:37:44.098Z,96423.38
2023-03-13T04:40:13.611Z,96415.69
2023-03-13T04:42:43.019Z,96411.13
2023-03-13T04:45:12.610Z,96415.88
2023-03-13T04:47:40.262Z,96416.38
2023-03-13T04:50:08.412Z,96416.38
2023-03-13T04:52:36.210Z,96415.41
2023-03-13T04:55:03.892Z,96407.22
2023-03-13T04:57:31.499Z,96403.94
2023-03-13T05:00:00.473Z,96397.19
2023-03-13T05:02:28.151Z,96393.78
2023-03-13T05:04:55.833Z,96396.38
2023-03-13T05:07:23.518Z,96378.19
2023-03-13T05:09:51.170Z,96393.78
2023-03-13T05:12:18.836Z,96382.16
2023-03-13T05:14:46.460Z,96380.72
2023-03-13T05:17:15.509Z,96375.16
2023-03-13T05:19:43.252Z,96378.94
2023-03-13T05:22:10.847Z,96368.94
2023-03-13T05:24:40.276Z,96352.13
2023-03-13T05:27:09.403Z,96354.09
2023-03-13T05:29:37.026Z,96367.66
2023-03-13T05:32:04.673Z,96334.91
2023-03-13T05:34:33.643Z,96342.16
2023-03-13T05:37:01.382Z,96342.16
2023-03-13T05:39:29.029Z,96337.25
2023-03-13T05:41:56.603Z,96342.16
2023-03-13T05:44:24.304Z,96338.25
2023-03-13T05:46:52.022Z,96330.84
2023-03-13T05:49:19.734Z,96335.63
2023-03-13T05:51:48.702Z,96337.44
2023-03-13T05:54:16.363Z,96339.06
2023-03-13T05:56:44.917Z,96345.13
2023-03-13T05:59:12.543Z,96351.69
2023-03-13T06:01:40.149Z,96353.81
2023-03-13T06:04:07.958Z,96339.91
2023-03-13T06:06:35.688Z,96348.09
2023-03-13T06:09:04.821Z,96337.63
2023-03-13T06:11:32.470Z,96337.09
2023-03-13T06:14:00.146Z,96335.97
2023-03-13T06:16:27.845Z,96328.09
2023-03-13T06:18:55.521Z,96332.69
2023-03-13T06:21:23.887Z,96328.75
2023-03-13T06:23:51.456Z,96318.13
2023-03-13T06:26:20.423Z,96320.72
2023-03-13T06:28:48.046Z,96321.06
2023-03-13T06:31:15.730Z,96305.81
2023-03-13T06:33:43.360Z,96310.69
2023-03-13T06:36:12.100Z,96288.09
2023-03-13T06:38:39.729Z,96305.31
2023-03-13T06:41:07.306Z,96326.63
2023-03-13T06:43:36.600Z,96319.22
2023-03-13T06:46:05.906Z,96312.19
2023-03-13T06:48:33.772Z,96300.72
2023-03-13T06:51:01.497Z,96304.16
2023-03-13T06:53:29.140Z,96297.94
2023-03-13T06:55:57.087Z,96277.25
2023-03-13T06:58:32.205Z,96291.34
2023-03-13T07:01:06.476Z,96301.00
2023-03-13T07:03:34.308Z,96290.34
2023-03-13T07:06:02.234Z,96297.22
2023-03-13T07:08:29.984Z,96295.03
2023-03-13T07:11:00.731Z,96301.59
2023-03-13T07:13:28.646Z,96289.75
2023-03-13T07:15:56.404Z,96294.88
2023-03-13T07:18:25.443Z,96291.81
2023-03-13T07:20:54.287Z,96277.50
2023-03-13T07:23:22.027Z,96278.84
2023-03-13T07:25:54.699Z,96278.84
2023-03-13T07:28:22.457Z,96277.03
2023-03-13T07:30:50.649Z,96275.09
2023-03-13T07:33:18.527Z,96280.16
2023-03-13T07:35:50.645Z,96277.72
2023-03-13T07:38:18.364Z,96272.63
2023-03-13T07:40:50.432Z,96272.63
2023-03-13T07:43:18.140Z,96278.03
2023-03-13T07:45:52.645Z,96259.34
2023-03-13T07:48:20.520Z,96265.03
2023-03-13T07:50:48.412Z,96263.09
2023-03-13T07:53:21.165Z,96261.13
2023-03-13T07:55:57.094Z,96266.84
2023-03-13T07:58:25.406Z,96264.06
2023-03-13T08:00:53.025Z,96259.94
2023-03-13T08:03:20.804Z,96258.91
2023-03-13T08:05:48.674Z,96263.16
2023-03-13T08:08:17.612Z,96259.41
2023-03-13T08:10:45.321Z,96272.03
2023-03-13T08:13:12.876Z,96270.19
2023-03-13T08:15:40.780Z,96257.72
2023-03-13T08:18:08.353Z,96254.09
2023-03-13T08:20:36.144Z,96250.84
2023-03-13T08:23:03.758Z,96252.34
2023-03-13T08:25:33.339Z,96248.81
2023-03-13T08:28:02.459Z,96253.38
2023-03-13T08:30:30.267Z,96253.53
2023-03-13T08:32:57.967Z,96254.88
2023-03-13T08:35:25.728Z,96254.69
2023-03-13T08:37:53.330Z,96252.63
2023-03-13T08:40:20.968Z,96251.63
2023-03-13T08:42:49.945Z,96253.75
2023-03-13T08:45:17.609Z,96240.97
2023-03-13T08:47:45.231Z,96235.94
2023-03-13T08:50:13.389Z,96232.59
2023-03-13T08:52:41.080Z,96221.53
2023-03-13T08:55:09.636Z,96225.16
2023-03-13T08:57:37.264Z,96214.53
2023-03-13T09:00:07.871Z,96214.72
2023-03-13T09:02:35.538Z,96218.69
2023-03-13T09:05:03.191Z,96208.72
2023-03-13T09:07:30.894Z,96203.19
2023-03-13T09:09:58.575Z,96197.69
2023-03-13T09:12:31.059Z,96193.81
2023-03-13T09:14:59.199Z,96187.97
2023-03-13T09:17:29.322Z,96187.97
2023-03-13T09:20:00.698Z,96169.47
2023-03-13T09:22:34.951Z,96167.41
2023-03-13T09:25:02.677Z,96162.75
2023-03-13T09:27:30.257Z,96142.69
2023-03-13T09:29:57.868Z,96145.47
2023-03-13T09:32:25.961Z,96153.63
2023-03-13T09:34:55.697Z,96161.63
2023-03-13T09:37:23.350Z,96155.91
2023-03-13T09:39:51.025Z,96154.38
2023-03-13T09:42:20.178Z,96155.75
2023-03-13T09:44:51.623Z,96155.38
2023-03-13T09:47:23.630Z,96159.59
2023-03-13T09:49:55.538Z,96144.03
2023-03-13T09:52:25.434Z,96154.06
2023-03-13T09:54:56.642Z,96149.66
2023-03-13T09:57:28.257Z,96153.38
2023-03-13T09:59:59.145Z,96153.13
2023-03-13T10:02:30.963Z,96151.56
2023-03-13T10:05:09.430Z,96148.41
2023-03-13T10:07:37.461Z,96153.69
2023-03-13T10:10:08.550Z,96141.50
2023-03-13T10:12:39.735Z,96147.53
2023-03-13T10:15:22.618Z,96141.72
2023-03-13T10:17:50.535Z,96145.94
2023-03-13T10:20:24.445Z,96140.41
2023-03-13T10:22:58.482Z,96140.56
2023-03-13T10:25:30.347Z,96123.97
2023-03-13T10:27:58.514Z,96121.94
2023-03-13T10:30:27.675Z,96126.47
2023-03-13T10:32:58.245Z,96129.72
2023-03-13T10:35:33.463Z,96124.66
2023-03-13T10:38:05.158Z,96123.25
2023-03-13T10:40:33.004Z,96138.09
2023-03-13T10:43:06.488Z,96129.28
2023-03-13T10:45:36.602Z,96118.16
2023-03-13T10:48:11.445Z,96109.66
2023-03-13T10:50:43.960Z,96126.16
2023-03-13T10:53:23.595Z,96116.75
2023-03-13T10:55:54.360Z,96120.63
2023-03-13T10:58:25.067Z,96106.59
2023-03-13T11:00:52.694Z,96108.22
2023-03-13T11:03:24.571Z,96111.50
2023-03-13T11:06:00.914Z,96097.47
2023-03-13T11:08:30.161Z,96100.13
2023-03-13T11:11:00.218Z,96098.06
2023-03-13T11:13:36.347Z,96098.50
2023-03-13T11:16:15.538Z,96107.44
2023-03-13T11:18:50.781Z,96102.97
2023-03-13T11:21:25.506Z,96108.84
2023-03-13T11:24:01.772Z,96086.28
2023-03-13T11:26:34.676Z,96091.78
2023-03-13T11:29:07.649Z,96089.72
2023-03-13T11:31:37.576Z,96078.94
2023-03-13T11:34:09.655Z,96077.50
2023-03-13T11:36:44.175Z,96077.66
2023-03-13T11:39:36.833Z,96076.69
2023-03-13T11:42:10.850Z,96066.75
2023-03-13T11:44:46.969Z,96073.03
2023-03-13T11:47:24.825Z,96068.75
2023-03-13T11:50:10.086Z,96075.22
2023-03-13T11:52:58.788Z,96080.16
2023-03-13T11:55:31.777Z,96075.88
2023-03-13T11:58:10.826Z,96075.28
2023-03-13T12:00:42.721Z,96065.94
2023-03-13T12:03:16.026Z,96085.44
2023-03-13T12:05:47.231Z,96076.47
2023-03-13T12:08:23.001Z,96069.38
2023-03-13T12:11:01.292Z,96065.50
2023-03-13T12:13:31.380Z,96060.59
2023-03-13T12:16:02.210Z,96051.50
2023-03-13T12:18:33.082Z,96035.41
2023-03-13T12:21:05.941Z,96042.66
2023-03-13T12:23:43.656Z,96044.97
2023-03-13T12:26:14.569Z,96040.28
2023-03-13T12:28:44.784Z,96035.31
2023-03-13T12:31:22.873Z,96027.84
2023-03-13T12:33:55.329Z,96006.00
2023-03-13T12:36:29.292Z,95998.41
2023-03-13T12:39:05.668Z,95990.53
2023-03-13T12:41:38.578Z,95984.47
2023-03-13T12:44:09.720Z,95984.63
2023-03-13T12:46:44.188Z,95992.94
2023-03-13T12:49:44.577Z,95990.56
2023-03-13T12:52:57.018Z,95993.53
2023-03-13T12:55:59.135Z,95979.63
2023-03-13T12:58:41.944Z,95980.56
2023-03-13T13:01:16.189Z,95971.03
2023-03-13T13:03:51.693Z,95969.69
2023-03-13T13:06:20.212Z,95971.19
2023-03-13T13:08:50.054Z,95962.38
2023-03-13T13:11:44.944Z,95959.50
2023-03-13T13:14:59.768Z,95951.63
2023-03-13T13:17:32.081Z,95963.63
2023-03-13T13:20:00.183Z,95952.16
2023-03-13T13:22:47.856Z,95951.13
2023-03-13T13:25:31.642Z,95930.22
2023-03-13T13:28:24.027Z,95929.44
2023-03-13T13:30:55.351Z,95921.78
2023-03-13T13:33:38.162Z,95915.19
2023-03-13T13:36:42.438Z,95915.78
2023-03-13T13:39:31.200Z,95905.25
2023-03-13T13:41:58.954Z,95891.72
2023-03-13T13:44:31.131Z,95887.56
2023-03-13T13:47:01.887Z,95875.66
2023-03-13T13:49:54.503Z,95881.09
2023-03-13T13:52:40.734Z,95881.44
2023-03-13T13:55:34.705Z,95870.09
2023-03-13T13:58:05.238Z,95863.66
2023-03-13T14:00:41.780Z,95849.06
2023-03-13T14:03:22.400Z,95840.69
2023-03-13T14:05:52.625Z,95854.59
2023-03-13T14:08:23.176Z,95843.00
2023-03-13T14:10:55.171Z,95831.72
2023-03-13T14:13:24.902Z,95832.78
2023-03-13T14:15:54.467Z,95831.72
2023-03-13T14:18:23.798Z,95837.41
2023-03-13T14:20:59.369Z,95830.34
2023-03-13T14:23:35.523Z,95816.50
2023-03-13T14:26:12.125Z,95804.09
2023-03-13T14:28:41.076Z,95794.31
2023-03-13T14:31:12.178Z,95802.44
2023-03-13T14:33:40.047Z,95802.22
2023-03-13T14:36:08.328Z,95798.41
2023-03-13T14:38:36.050Z,95792.59
2023-03-13T14:41:03.819Z,95782.22
2023-03-13T14:43:34.778Z,95780.72
2023-03-13T14:46:16.070Z,95762.81
2023-03-13T14:48:44.278Z,95752.69
2023-03-13T14:51:19.711Z,95753.66
2023-03-13T14:53:57.919Z,95738.88
2023-03-13T14:56:33.504Z,95744.88
2023-03-13T14:59:09.004Z,95723.66
2023-03-13T15:01:38.136Z,95715.91
2023-03-13T15:04:05.981Z,95723.22
2023-03-13T15:06:33.805Z,95716.72
2023-03-13T15:09:20.301Z,95709.44
2023-03-13T15:11:56.700Z,95721.22
2023-03-13T15:14:37.202Z,95709.13
2023-03-13T15:17:12.719Z,95703.34
2023-03-13T15:19:40.389Z,95708.88
2023-03-13T15:22:13.214Z,95697.97
2023-03-13T15:24:40.809Z,95685.47
2023-03-13T15:27:16.342Z,95677.81
2023-03-13T15:29:44.193Z,95665.13
2023-03-13T15:32:18.065Z,95656.44
2023-03-13T15:34:46.166Z,95640.53
2023-03-13T15:37:14.374Z,95649.31
2023-03-13T15:39:42.292Z,95641.47
2023-03-13T15:42:10.382Z,95645.75
2023-03-13T15:44:38.030Z,95632.38
2023-03-13T15:47:05.766Z,95627.84
2023-03-13T15:49:34.862Z,95616.06
2023-03-13T15:52:02.488Z,95616.56
2023-03-13T15:54:30.104Z,95619.25
2023-03-13T15:56:57.856Z,95616.19
2023-03-13T15:59:25.530Z,95613.53
2023-03-13T16:01:53.329Z,95608.78
2023-03-13T16:04:21.130Z,95596.19
2023-03-13T16:06:50.186Z,95598.59
2023-03-13T16:09:17.820Z,95587.66
2023-03-13T16:11:45.808Z,95583.56
2023-03-13T16:14:13.437Z,95596.56
2023-03-13T16:16:41.417Z,95587.69
2023-03-13T16:19:10.624Z,95568.78
2023-03-13T16:21:40.358Z,95562.94
2023-03-13T16:24:09.518Z,95562.72
2023-03-13T16:26:37.128Z,95551.97
2023-03-13T16:29:04.772Z,95552.31
2023-03-13T16:31:34.319Z,95541.13
2023-03-13T16:34:02.345Z,95540.34
2023-03-13T16:36:31.610Z,95548.53
2023-03-13T16:38:59.762Z,95530.06
2023-03-13T16:41:29.726Z,95523.72
2023-03-13T16:43:57.630Z,95520.25
2023-03-13T16:46:27.105Z,95522.69
2023-03-13T16:48:57.082Z,95520.16
2023-03-13T16:51:26.391Z,95508.38
2023-03-13T16:53:55.039Z,95506.94
2023-03-13T16:56:26.095Z,95498.53
2023-03-13T16:58:55.677Z,95497.22
2023-03-13T17:01:24.850Z,95498.56
2023-03-13T17:03:52.830Z,95495.31
2023-03-13T17:06:22.577Z,95484.16
2023-03-13T17:08:50.599Z,95482.78
2023-03-13T17:11:19.628Z,95466.31
2023-03-13T17:13:48.707Z,95469.47
2023-03-13T17:16:20.553Z,95465.53
2023-03-13T17:18:50.020Z,95471.78
2023-03-13T17:21:19.402Z,95464.97
2023-03-13T17:23:47.349Z,95461.06
2023-03-13T17:26:18.794Z,95456.81
2023-03-13T17:28:48.475Z,95453.66
2023-03-13T17:31:18.571Z,95465.94
2023-03-13T17:33:46.664Z,95450.94
2023-03-13T17:36:20.192Z,95453.00
2023-03-13T17:38:48.969Z,95450.56
2023-03-13T17:41:17.972Z,95433.25
2023-03-13T17:43:45.635Z,95435.66
2023-03-13T17:46:19.783Z,95431.91
2023-03-13T17:48:48.752Z,95423.78
2023-03-13T17:51:18.711Z,95416.50
2023-03-13T17:53:46.622Z,95415.19
2023-03-13T17:56:15.741Z,95418.47
2023-03-13T17:58:43.461Z,95405.31
2023-03-13T18:01:13.281Z,95403.50
2023-03-13T18:03:42.939Z,95406.88
2023-03-13T18:06:19.008Z,95389.38
2023-03-13T18:08:46.766Z,95383.97
2023-03-13T18:11:15.403Z,95386.31
2023-03-13T18:13:43.130Z,95379.16
2023-03-13T18:16:18.383Z,95388.88
2023-03-13T18:18:47.453Z,95380.47
2023-03-13T18:21:15.108Z,95377.06
2023-03-13T18:23:42.711Z,95362.69
2023-03-13T18:26:30.208Z,95371.03
2023-03-13T18:29:00.985Z,95367.22
2023-03-13T18:31:30.018Z,95345.31
2023-03-13T18:34:00.165Z,95349.25
2023-03-13T18:36:28.944Z,95349.19
2023-03-13T18:38:57.154Z,95336.03
2023-03-13T18:41:25.258Z,95346.66
2023-03-13T18:43:52.920Z,95338.94
2023-03-13T18:46:22.020Z,95335.97
2023-03-13T18:48:50.797Z,95337.69
2023-03-13T18:51:21.272Z,95329.63
2023-03-13T18:53:48.972Z,95320.75
2023-03-13T18:56:19.610Z,95308.19
2023-03-13T18:58:50.296Z,95297.47
2023-03-13T19:01:20.708Z,95284.38
2023-03-13T19:03:49.324Z,95273.16
2023-03-13T19:06:29.431Z,95276.53
2023-03-13T19:08:58.696Z,95278.59
2023-03-13T19:11:28.664Z,95269.25
2023-03-13T19:13:57.340Z,95269.81
2023-03-13T19:16:26.899Z,95257.97
2023-03-13T19:18:55.253Z,95260.63
2023-03-13T19:21:24.248Z,95265.69
2023-03-13T19:23:54.040Z,95257.31
2023-03-13T19:26:27.463Z,95245.59
2023-03-13T19:28:55.091Z,95248.31
2023-03-13T19:31:23.544Z,95239.81
2023-03-13T19:33:53.560Z,95220.25
2023-03-13T19:36:22.685Z,95223.13
2023-03-13T19:38:50.832Z,95225.75
2023-03-13T19:41:19.791Z,95217.94
2023-03-13T19:43:48.465Z,95225.09
2023-03-13T19:46:24.959Z,95208.31
2023-03-13T19:48:53.924Z,95222.09
2023-03-13T19:51:21.757Z,95211.50
2023-03-13T19:53:49.516Z,95211.47
2023-03-13T19:56:20.685Z,95219.41
2023-03-13T19:58:49.289Z,95201.91
2023-03-13T20:01:18.117Z,95214.44
2023-03-13T20:03:46.743Z,95232.53
2023-03-13T20:06:17.368Z,95232.88
2023-03-13T20:08:45.162Z,95230.13
2023-03-13T20:11:12.888Z,95222.97
2023-03-13T20:13:42.365Z,95221.56
2023-03-13T20:16:11.665Z,95199.69
2023-03-13T20:18:39.689Z,95189.97
2023-03-13T20:21:08.511Z,95182.72
2023-03-13T20:23:36.143Z,95182.84
2023-03-13T20:26:06.055Z,95174.44
2023-03-13T20:28:33.660Z,95175.59
2023-03-13T20:31:02.642Z,95168.50
2023-03-13T20:33:30.840Z,95170.81
2023-03-13T20:36:01.986Z,95173.31
2023-03-13T20:38:30.115Z,95186.88
2023-03-13T20:40:58.098Z,95180.44
2023-03-13T20:43:26.357Z,95184.84
2023-03-13T20:45:54.102Z,95190.94
2023-03-13T20:48:25.995Z,95179.66
2023-03-13T20:50:54.590Z,95151.34
2023-03-13T20:53:22.810Z,95148.59
2023-03-13T20:55:50.780Z,95179.31
2023-03-13T20:58:20.198Z,95194.47
2023-03-13T21:00:48.543Z,95221.84
2023-03-13T21:03:17.394Z,95257.03
2023-03-13T21:05:46.608Z,95248.34
2023-03-13T21:08:14.702Z,95283.38
2023-03-13T21:10:42.830Z,95263.34
2023-03-13T21:13:11.167Z,95258.16
2023-03-13T21:15:40.512Z,95396.03
2023-03-13T21:18:08.497Z,95397.34
2023-03-13T21:20:36.111Z,95371.06
2023-03-13T21:23:05.175Z,95392.28
2023-03-13T21:25:32.760Z,95387.72
2023-03-13T21:28:00.728Z,95370.97
2023-03-13T21:30:28.413Z,95342.72
2023-03-13T21:32:56.071Z,95348.94
2023-03-13T21:35:23.740Z,95355.50
2023-03-13T21:37:51.411Z,95347.63
2023-03-13T21:40:20.516Z,95343.38
2023-03-13T21:42:48.103Z,95328.56
2023-03-13T21:45:15.729Z,95332.81
2023-03-13T21:47:43.330Z,95337.81
2023-03-13T21:50:14.213Z,95332.25
2023-03-13T21:52:42.422Z,95329.72
2023-03-13T21:55:12.220Z,95327.16
2023-03-13T21:57:41.278Z,95317.09
2023-03-13T22:00:10.521Z,95326.75
2023-03-13T22:02:38.606Z,95353.75
2023-03-13T22:05:07.782Z,95383.31
2023-03-13T22:07:35.457Z,95405.66
2023-03-13T22:10:03.088Z,95448.91
2023-03-13T22:12:30.683Z,95493.75
2023-03-13T22:14:59.693Z,95508.72
2023-03-13T22:17:27.290Z,95528.63
2023-03-13T22:19:54.934Z,95538.97
2023-03-13T22:22:23.261Z,95547.50
2023-03-13T22:24:51.127Z,95562.97
2023-03-13T22:27:19.456Z,95565.91
2023-03-13T22:29:47.673Z,95593.97
2023-03-13T22:32:16.829Z,95602.97
2023-03-13T22:34:47.114Z,95600.13
2023-03-13T22:37:14.803Z,95591.22
2023-03-13T22:39:42.506Z,95590.81
2023-03-13T22:42:10.120Z,95579.84
2023-03-13T22:44:37.706Z,95586.94
2023-03-13T22:47:05.392Z,95580.66
2023-03-13T22:49:34.322Z,95584.28
2023-03-13T22:52:02.699Z,95579.00
2023-03-13T22:54:30.485Z,95575.13
2023-03-13T22:56:58.111Z,95568.19
2023-03-13T22:59:25.800Z,95572.25
2023-03-13T23:01:53.363Z,95574.47
2023-03-13T23:04:21.357Z,95549.63
2023-03-13T23:06:50.387Z,95566.91
2023-03-13T23:09:18.009Z,95562.63
2023-03-13T23:11:46.593Z,95542.97
2023-03-13T23:14:14.210Z,95536.50
2023-03-13T23:16:42.184Z,95527.56
2023-03-13T23:19:09.772Z,95511.16
2023-03-13T23:21:37.378Z,95501.09
2023-03-13T23:24:06.991Z,95504.34
2023-03-13T23:26:35.227Z,95488.13
2023-03-13T23:29:02.994Z,95473.97
2023-03-13T23:31:30.741Z,95452.06
2023-03-13T23:33:59.052Z,95433.22
2023-03-13T23:36:26.985Z,95417.81
2023-03-13T23:38:56.119Z,95417.66
2023-03-13T23:41:25.083Z,95401.22
2023-03-13T23:43:52.690Z,95403.88
2023-03-13T23:46:21.692Z,95395.34
2023-03-13T23:48:49.551Z,95380.78
2023-03-13T23:51:17.185Z,95387.66
2023-03-13T23:53:45.328Z,95392.94
2023-03-13T23:56:12.974Z,95406.34
2023-03-13T23:58:42.109Z,95400.31
